map of POG home
POG - Airport
Location
City:  Port-Gentil, Ogooué-Maritime, Gabon
Name:Port-Gentil International Airport
ICAO:FOOG
IATA:POG

Details
Type:Airport (Aerodrome, Airfield)
Use:Public/Civil, International (customs port of entry)
Latitude:0°43'09"S (-0.719166)
Longitude:8°45'05"E (8.751389)
Elevation:13 ft (4 m)
Variation:2.31°W (WMM2015 magnetic declination)
0.14° annual change
Runways:2
Longest:8530 × 148 ft (2600 × 45 m), paved

Time
Time Zone:UTC+1
Local Time:

Weather
METAR:FOOG 160900Z 06010KT 0800 +TSRA SCT006 FEW016CB OVC026 23/22 Q1016
TAF:FOOG 160500Z 1606/1706 20007KT 9999 TS SCT008 FEW018CB BKN030
TEMPO 1606/1609 4000 TSRA BKN008 FEW016CB OVC024
BECMG 1609/1611 NSW

Related Locations
Nearby:
Farthest:CIS: 12188 mi / 19615 km
Kanton Island (Canton Island, Abariringa Island) [Canton Island Airport], P, KI

Find:

   beyond  
but within

Other Information
Maps:
NOTAMs:
Links:
Sources:

  
  • flag of Gabon
  

Sectional Chart

Flight Planning
at skyvector.com

Satellite Image

Google Maps Satellite view

 

Copyright © 2004-2018 Karl L. Swartz. All rights reserved.
The Great Circle Mapper name and logo are trademarks of the Great Circle Mapper.
All other trademarks mentioned herein belong to their respective owners.
Please see credits for attibutions and further copyright information.

  Follow gcmap on Facebook Follow gcmap on Twitter Follow gcmap on Google+ GCmap on LinkedIn

hCard Microformat

Geo Microformat